createdAt,value
2024-02-28T00:01:56.160Z,5.7
2024-02-28T00:04:56.171Z,5.6
2024-02-28T00:07:56.163Z,5.6
2024-02-28T00:10:56.201Z,5.6
2024-02-28T00:13:56.157Z,5.6
2024-02-28T00:16:56.190Z,5.6
2024-02-28T00:19:56.161Z,5.6
2024-02-28T00:22:56.160Z,5.6
2024-02-28T00:25:56.155Z,5.5
2024-02-28T00:31:56.156Z,5.5
2024-02-28T00:34:56.180Z,5.5
2024-02-28T00:37:56.166Z,5.5
2024-02-28T00:40:56.166Z,5.5
2024-02-28T00:43:56.174Z,5.4
2024-02-28T00:46:56.194Z,5.4
2024-02-28T00:49:56.171Z,5.4
2024-02-28T00:52:56.162Z,5.4
2024-02-28T00:55:56.160Z,5.4
2024-02-28T01:01:56.179Z,5.3
2024-02-28T01:04:56.174Z,5.3
2024-02-28T01:07:56.168Z,5.3
2024-02-28T01:10:56.177Z,5.3
2024-02-28T01:13:56.166Z,5.3
2024-02-28T01:16:56.165Z,5.3
2024-02-28T01:19:56.171Z,5.3
2024-02-28T01:22:56.171Z,5.3
2024-02-28T01:25:56.177Z,5.3
2024-02-28T01:31:56.164Z,5.2
2024-02-28T01:34:56.174Z,5.2
2024-02-28T01:37:56.183Z,5.2
2024-02-28T01:40:56.177Z,5.2
2024-02-28T01:43:56.177Z,5.1
2024-02-28T01:46:56.171Z,5.1
2024-02-28T01:49:56.176Z,5.1
2024-02-28T01:52:56.169Z,5.1
2024-02-28T01:55:56.182Z,5
2024-02-28T01:58:56.177Z,5
2024-02-28T02:01:56.167Z,5
2024-02-28T02:04:56.183Z,5
2024-02-28T02:07:56.184Z,5
2024-02-28T02:10:56.236Z,5
2024-02-28T02:13:56.201Z,4.9
2024-02-28T02:16:56.177Z,4.9
2024-02-28T02:19:56.180Z,4.9
2024-02-28T02:22:56.190Z,4.9
2024-02-28T02:25:56.179Z,4.9
2024-02-28T02:28:56.193Z,4.9
2024-02-28T02:31:56.182Z,4.8
2024-02-28T02:34:56.183Z,4.8
2024-02-28T02:37:56.181Z,4.8
2024-02-28T02:40:56.193Z,4.8
2024-02-28T02:43:56.185Z,4.8
2024-02-28T02:46:56.191Z,4.8
2024-02-28T02:49:56.191Z,4.7
2024-02-28T02:52:56.188Z,4.7
2024-02-28T02:55:56.192Z,4.7
2024-02-28T02:58:56.193Z,4.7
2024-02-28T03:01:56.207Z,4.7
2024-02-28T03:04:56.190Z,4.7
2024-02-28T03:07:56.202Z,4.7
2024-02-28T03:10:56.196Z,4.7
2024-02-28T03:13:56.188Z,4.7
2024-02-28T03:16:56.185Z,4.7
2024-02-28T03:19:56.209Z,4.7
2024-02-28T03:22:56.194Z,4.7
2024-02-28T03:25:56.188Z,4.7
2024-02-28T03:28:56.190Z,4.7
2024-02-28T03:31:56.201Z,4.7
2024-02-28T03:34:56.190Z,4.7
2024-02-28T03:37:56.213Z,4.7
2024-02-28T03:40:56.188Z,4.7
2024-02-28T03:43:56.191Z,4.7
2024-02-28T03:46:56.185Z,4.6
2024-02-28T03:49:56.190Z,4.6
2024-02-28T03:52:56.195Z,4.6
2024-02-28T03:55:56.202Z,4.6
2024-02-28T03:58:56.190Z,4.6
2024-02-28T04:01:56.194Z,4.6
2024-02-28T04:04:56.192Z,4.6
2024-02-28T04:07:56.199Z,4.5
2024-02-28T04:10:56.209Z,4.5
2024-02-28T04:13:56.206Z,4.5
2024-02-28T04:16:56.200Z,4.5
2024-02-28T04:19:56.211Z,4.5
2024-02-28T04:22:56.202Z,4.5
2024-02-28T04:25:56.208Z,4.5
2024-02-28T04:28:56.307Z,4.5
2024-02-28T04:31:56.334Z,4.5
2024-02-28T04:34:56.385Z,4.4
2024-02-28T04:37:56.204Z,4.4
2024-02-28T04:40:56.209Z,4.4
2024-02-28T04:43:56.213Z,4.4
2024-02-28T04:46:56.197Z,4.4
2024-02-28T04:49:56.196Z,4.4
2024-02-28T04:52:56.208Z,4.4
2024-02-28T04:55:56.217Z,4.4
2024-02-28T05:01:56.229Z,4.3
2024-02-28T05:04:56.203Z,4.3
2024-02-28T05:07:56.208Z,4.3
2024-02-28T05:10:56.240Z,4.3
2024-02-28T05:13:56.215Z,4.3
2024-02-28T05:16:56.208Z,4.3
2024-02-28T05:19:56.204Z,4.3
2024-02-28T05:22:56.212Z,4.2
2024-02-28T05:25:56.216Z,4.2
2024-02-28T05:31:56.216Z,4.2
2024-02-28T05:34:56.221Z,4.2
2024-02-28T05:37:56.211Z,4.2
2024-02-28T05:40:56.227Z,4.1
2024-02-28T05:43:56.224Z,4.1
2024-02-28T05:46:56.219Z,4.1
2024-02-28T05:49:56.214Z,4.1
2024-02-28T05:52:56.221Z,4.1
2024-02-28T05:55:56.229Z,4
2024-02-28T05:58:56.220Z,4
2024-02-28T06:01:56.262Z,4
2024-02-28T06:04:56.224Z,4
2024-02-28T06:07:56.223Z,4
2024-02-28T06:10:56.280Z,3.9
2024-02-28T06:13:56.219Z,3.9
2024-02-28T06:16:56.224Z,3.9
2024-02-28T06:19:56.236Z,3.9
2024-02-28T06:22:56.223Z,3.9
2024-02-28T06:25:56.264Z,3.9
2024-02-28T06:31:56.224Z,3.9
2024-02-28T06:34:56.225Z,3.9
2024-02-28T06:37:56.221Z,3.9
2024-02-28T06:40:56.214Z,3.9
2024-02-28T06:43:56.219Z,3.9
2024-02-28T06:46:56.225Z,3.9
2024-02-28T06:49:56.215Z,3.9
2024-02-28T06:52:56.230Z,3.9
2024-02-28T06:55:56.238Z,4
2024-02-28T06:58:56.227Z,4
2024-02-28T07:01:56.250Z,4
2024-02-28T07:04:56.221Z,4
2024-02-28T07:07:56.241Z,4
2024-02-28T07:10:56.241Z,4
2024-02-28T07:13:56.223Z,4
2024-02-28T07:16:56.234Z,4
2024-02-28T07:19:56.231Z,4
2024-02-28T07:22:56.232Z,4
2024-02-28T07:25:56.228Z,4
2024-02-28T07:28:56.230Z,4
2024-02-28T07:34:56.241Z,4
2024-02-28T07:37:56.227Z,4
2024-02-28T07:40:56.232Z,4
2024-02-28T07:43:56.230Z,4
2024-02-28T07:46:56.242Z,4
2024-02-28T07:49:56.236Z,4
2024-02-28T07:52:56.236Z,4
2024-02-28T07:55:56.234Z,4
2024-02-28T07:58:56.230Z,4
2024-02-28T08:01:56.351Z,4
2024-02-28T08:04:56.268Z,4
2024-02-28T08:07:56.263Z,4
2024-02-28T08:10:56.305Z,4
2024-02-28T08:13:56.240Z,4
2024-02-28T08:16:56.236Z,4
2024-02-28T08:19:56.241Z,4
2024-02-28T08:22:56.241Z,4
2024-02-28T08:25:56.255Z,4.1
2024-02-28T08:28:56.252Z,4.2
2024-02-28T08:31:56.260Z,4.2
2024-02-28T08:34:56.246Z,4.2
2024-02-28T08:37:56.237Z,4.3
2024-02-28T08:40:56.252Z,4.3
2024-02-28T08:43:56.243Z,4.4
2024-02-28T08:46:56.241Z,4.5
2024-02-28T08:49:56.251Z,4.6
2024-02-28T08:52:56.256Z,4.6
2024-02-28T08:55:56.256Z,4.7
2024-02-28T08:58:56.258Z,4.7
2024-02-28T09:01:56.294Z,4.7
2024-02-28T09:04:56.251Z,4.7
2024-02-28T09:07:56.366Z,4.8
2024-02-28T09:10:56.249Z,4.8
2024-02-28T09:13:56.432Z,4.8
2024-02-28T09:16:56.504Z,4.9
2024-02-28T09:19:56.260Z,5
2024-02-28T09:25:56.256Z,5
2024-02-28T09:28:56.323Z,5
2024-02-28T09:31:56.263Z,5.1
2024-02-28T09:34:56.256Z,5.1
2024-02-28T09:37:56.258Z,5.2
2024-02-28T09:40:56.256Z,5.2
2024-02-28T09:43:56.267Z,5.3
2024-02-28T09:49:56.264Z,5.3
2024-02-28T09:53:01.861Z,5.3
2024-02-28T09:55:56.262Z,5.4
2024-02-28T10:01:56.290Z,5.4
2024-02-28T10:04:56.271Z,5.5
2024-02-28T10:07:56.272Z,5.5
2024-02-28T10:10:56.276Z,5.6
2024-02-28T10:13:56.263Z,5.6
2024-02-28T10:16:56.271Z,5.6
2024-02-28T10:19:56.299Z,5.6
2024-02-28T10:22:56.268Z,5.7
2024-02-28T10:25:57.365Z,5.7
2024-02-28T10:31:56.259Z,5.8
2024-02-28T10:34:56.288Z,5.8
2024-02-28T10:37:56.279Z,5.9
2024-02-28T10:40:56.270Z,5.9
2024-02-28T10:43:56.277Z,5.9
2024-02-28T10:46:56.296Z,5.9
2024-02-28T10:49:56.276Z,5.9
2024-02-28T10:52:56.269Z,6
2024-02-28T10:55:56.286Z,6
2024-02-28T11:01:56.278Z,6
2024-02-28T11:04:56.301Z,6
2024-02-28T11:07:56.274Z,6
2024-02-28T11:10:56.286Z,6
2024-02-28T11:13:56.358Z,6.1
2024-02-28T11:16:56.281Z,6.1
2024-02-28T11:19:56.287Z,6.1
2024-02-28T11:22:56.284Z,6.1
2024-02-28T11:25:56.552Z,6.1
2024-02-28T11:28:56.292Z,6.1
2024-02-28T11:31:56.295Z,6.2
2024-02-28T11:34:56.282Z,6.2
2024-02-28T11:37:56.302Z,6.2
2024-02-28T11:40:56.337Z,6.2
2024-02-28T11:43:56.291Z,6.3
2024-02-28T11:46:56.281Z,6.3
2024-02-28T11:49:56.285Z,6.3
2024-02-28T11:52:56.320Z,6.3
2024-02-28T11:55:56.283Z,6.4
2024-02-28T11:58:56.290Z,6.5
2024-02-28T12:01:56.304Z,6.5
2024-02-28T12:04:56.291Z,6.6
2024-02-28T12:07:56.955Z,6.6
2024-02-28T12:10:56.322Z,6.7
2024-02-28T12:13:56.547Z,6.7
2024-02-28T12:16:56.290Z,6.7
2024-02-28T12:19:56.635Z,6.7
2024-02-28T12:22:56.302Z,6.8
2024-02-28T12:25:56.310Z,6.8
2024-02-28T12:28:56.301Z,6.8
2024-02-28T12:31:56.293Z,6.9
2024-02-28T12:34:56.295Z,6.9
2024-02-28T12:37:56.306Z,6.9
2024-02-28T12:40:56.295Z,7
2024-02-28T12:43:56.294Z,7
2024-02-28T12:46:56.298Z,7.1
2024-02-28T12:49:56.296Z,7.1
2024-02-28T12:52:56.300Z,7.1
2024-02-28T12:55:56.287Z,7.2
2024-02-28T12:58:56.297Z,7.2
2024-02-28T13:01:56.293Z,7.3
2024-02-28T13:04:56.340Z,7.4
2024-02-28T13:07:56.342Z,7.6
2024-02-28T13:10:57.919Z,7.7
2024-02-28T13:13:56.294Z,7.9
2024-02-28T13:16:56.298Z,7.9
2024-02-28T13:22:56.304Z,8
2024-02-28T13:25:56.314Z,8
2024-02-28T13:28:56.305Z,8
2024-02-28T13:31:56.308Z,8
2024-02-28T13:34:56.304Z,8
2024-02-28T13:37:56.302Z,8
2024-02-28T13:40:56.321Z,8
2024-02-28T13:43:56.302Z,8.1
2024-02-28T13:46:56.303Z,8.1
2024-02-28T13:49:56.295Z,8.1
2024-02-28T13:52:56.331Z,8.1
2024-02-28T13:55:56.310Z,8.1
2024-02-28T13:58:56.308Z,8.1
2024-02-28T14:01:56.402Z,8.1
2024-02-28T14:04:56.343Z,8.1
2024-02-28T14:07:56.326Z,8.1
2024-02-28T14:10:56.341Z,8.1
2024-02-28T14:13:56.317Z,8.1
2024-02-28T14:16:56.322Z,8.1
2024-02-28T14:19:56.323Z,8.1
2024-02-28T14:22:56.328Z,8.1
2024-02-28T14:25:56.325Z,8.1
2024-02-28T14:31:56.339Z,8.2
2024-02-28T14:34:56.319Z,8.2
2024-02-28T14:37:56.411Z,8.2
2024-02-28T14:40:56.357Z,8.2
2024-02-28T14:43:56.367Z,8.4
2024-02-28T14:46:56.343Z,8.4
2024-02-28T14:49:56.350Z,8.5
2024-02-28T14:52:56.343Z,8.5
2024-02-28T14:55:56.364Z,8.5
2024-02-28T15:01:56.367Z,8.5
2024-02-28T15:04:56.346Z,8.5
2024-02-28T15:07:56.360Z,8.6
2024-02-28T15:10:56.392Z,8.6
2024-02-28T15:13:56.351Z,8.9
2024-02-28T15:16:56.341Z,8.8
2024-02-28T15:19:56.348Z,8.8
2024-02-28T15:22:56.383Z,8.7
2024-02-28T15:25:56.350Z,8.7
2024-02-28T15:31:56.351Z,8.6
2024-02-28T15:34:56.350Z,8.5
2024-02-28T15:37:56.357Z,8.5
2024-02-28T15:40:56.351Z,8.4
2024-02-28T15:43:56.429Z,8.3
2024-02-28T15:49:56.365Z,8.2
2024-02-28T15:52:56.402Z,8.2
2024-02-28T15:55:56.368Z,8.1
2024-02-28T15:58:56.369Z,8.1
2024-02-28T16:01:56.363Z,8
2024-02-28T16:04:56.367Z,8
2024-02-28T16:07:56.369Z,7.9
2024-02-28T16:10:56.376Z,7.9
2024-02-28T16:13:56.435Z,7.9
2024-02-28T16:16:56.368Z,7.8
2024-02-28T16:19:56.368Z,7.8
2024-02-28T16:22:56.375Z,7.7
2024-02-28T16:25:56.470Z,7.7
2024-02-28T16:28:56.378Z,7.6
2024-02-28T16:31:56.365Z,7.6
2024-02-28T16:34:56.364Z,7.5
2024-02-28T16:37:56.370Z,7.5
2024-02-28T16:40:56.395Z,7.4
2024-02-28T16:43:56.543Z,7.4
2024-02-28T16:46:56.377Z,7.3
2024-02-28T16:49:56.364Z,7.2
2024-02-28T16:52:56.371Z,7.2
2024-02-28T16:55:56.369Z,7.2
2024-02-28T16:58:56.491Z,7.2
2024-02-28T17:01:56.378Z,7.1
2024-02-28T17:04:56.368Z,7.1
2024-02-28T17:07:56.366Z,7.1
2024-02-28T17:10:56.388Z,7.1
2024-02-28T17:13:56.379Z,7.1
2024-02-28T17:16:56.380Z,7
2024-02-28T17:19:58.123Z,7
2024-02-28T17:22:56.367Z,6.9
2024-02-28T17:25:56.372Z,6.9
2024-02-28T17:28:56.378Z,6.9
2024-02-28T17:31:56.371Z,6.8
2024-02-28T17:34:56.383Z,6.8
2024-02-28T17:37:56.375Z,6.8
2024-02-28T17:40:56.386Z,6.7
2024-02-28T17:43:56.381Z,6.7
2024-02-28T17:46:56.385Z,6.7
2024-02-28T17:49:56.366Z,6.7
2024-02-28T17:52:56.387Z,6.7
2024-02-28T17:55:56.389Z,6.7
2024-02-28T17:58:56.381Z,6.7
2024-02-28T18:01:56.394Z,6.6
2024-02-28T18:04:56.380Z,6.6
2024-02-28T18:07:56.385Z,6.6
2024-02-28T18:10:56.384Z,6.6
2024-02-28T18:13:56.383Z,6.6
2024-02-28T18:16:56.392Z,6.6
2024-02-28T18:19:56.384Z,6.5
2024-02-28T18:22:56.391Z,6.5
2024-02-28T18:25:56.381Z,6.5
2024-02-28T18:28:56.384Z,6.4
2024-02-28T18:31:56.387Z,6.4
2024-02-28T18:34:56.393Z,6.4
2024-02-28T18:37:56.481Z,6.3
2024-02-28T18:40:56.389Z,6.3
2024-02-28T18:43:56.389Z,6.3
2024-02-28T18:46:56.387Z,6.3
2024-02-28T18:49:56.389Z,6.3
2024-02-28T18:52:56.390Z,6.2
2024-02-28T18:55:56.380Z,6.2
2024-02-28T19:04:56.399Z,6.2
2024-02-28T19:07:56.395Z,6.2
2024-02-28T19:10:56.402Z,6.1
2024-02-28T19:13:58.422Z,6.1
2024-02-28T19:16:56.400Z,6.1
2024-02-28T19:19:56.392Z,6.1
2024-02-28T19:25:56.404Z,6.1
2024-02-28T19:31:56.402Z,6
2024-02-28T19:34:56.416Z,6
2024-02-28T19:37:56.399Z,6
2024-02-28T19:40:56.399Z,6
2024-02-28T19:43:56.394Z,6
2024-02-28T19:46:56.406Z,5.9
2024-02-28T19:49:56.389Z,5.9
2024-02-28T19:52:56.486Z,5.9
2024-02-28T19:55:56.411Z,5.9
2024-02-28T20:01:56.437Z,5.8
2024-02-28T20:04:56.397Z,5.8
2024-02-28T20:07:56.397Z,5.8
2024-02-28T20:10:56.416Z,5.8
2024-02-28T20:13:56.394Z,5.8
2024-02-28T20:16:56.396Z,5.7
2024-02-28T20:19:56.393Z,5.7
2024-02-28T20:22:56.409Z,5.7
2024-02-28T20:25:56.400Z,5.7
2024-02-28T20:28:56.411Z,5.6
2024-02-28T20:31:56.397Z,5.6
2024-02-28T20:34:56.408Z,5.6
2024-02-28T20:37:56.405Z,5.6
2024-02-28T20:40:56.400Z,5.6
2024-02-28T20:43:57.182Z,5.6
2024-02-28T20:46:56.405Z,5.5
2024-02-28T20:49:56.407Z,5.5
2024-02-28T20:52:58.338Z,5.5
2024-02-28T20:55:56.503Z,5.5
2024-02-28T20:58:56.423Z,5.5
2024-02-28T21:01:56.433Z,5.4
2024-02-28T21:04:56.482Z,5.4
2024-02-28T21:07:56.402Z,5.3
2024-02-28T21:10:56.510Z,5.3
2024-02-28T21:13:56.411Z,5.3
2024-02-28T21:16:57.764Z,5.3
2024-02-28T21:19:56.404Z,5.2
2024-02-28T21:22:56.403Z,5.2
2024-02-28T21:25:56.398Z,5.2
2024-02-28T21:28:56.411Z,5.2
2024-02-28T21:31:56.404Z,5.2
2024-02-28T21:34:56.410Z,5.1
2024-02-28T21:37:56.412Z,5.1
2024-02-28T21:40:56.501Z,5.1
2024-02-28T21:43:56.407Z,5.1
2024-02-28T21:46:56.426Z,5
2024-02-28T21:49:56.411Z,5
2024-02-28T21:52:56.413Z,5
2024-02-28T21:55:56.414Z,5
2024-02-28T21:58:56.417Z,5
2024-02-28T22:04:56.418Z,4.9
2024-02-28T22:07:56.410Z,4.9
2024-02-28T22:10:56.453Z,4.8
2024-02-28T22:13:56.425Z,4.8
2024-02-28T22:16:56.413Z,4.8
2024-02-28T22:19:56.430Z,4.7
2024-02-28T22:22:56.423Z,4.7
2024-02-28T22:25:56.421Z,4.7
2024-02-28T22:28:56.422Z,4.7
2024-02-28T22:31:56.423Z,4.7
2024-02-28T22:34:56.429Z,4.7
2024-02-28T22:37:56.430Z,4.7
2024-02-28T22:40:56.419Z,4.6
2024-02-28T22:43:56.423Z,4.6
2024-02-28T22:46:56.427Z,4.6
2024-02-28T22:49:56.426Z,4.6
2024-02-28T22:52:56.421Z,4.5
2024-02-28T22:55:56.447Z,4.5
2024-02-28T22:58:56.440Z,4.5
2024-02-28T23:04:56.419Z,4.5
2024-02-28T23:07:56.448Z,4.4
2024-02-28T23:10:56.461Z,4.4
2024-02-28T23:13:56.421Z,4.4
2024-02-28T23:16:56.433Z,4.4
2024-02-28T23:19:56.433Z,4.4
2024-02-28T23:22:56.466Z,4.4
2024-02-28T23:25:56.429Z,4.4
2024-02-28T23:31:56.427Z,4.3
2024-02-28T23:34:56.495Z,4.3
2024-02-28T23:37:56.464Z,4.3
2024-02-28T23:40:56.435Z,4.3
2024-02-28T23:43:58.155Z,4.3
2024-02-28T23:46:56.426Z,4.3
2024-02-28T23:49:56.557Z,4.3
2024-02-28T23:52:56.428Z,4.3
